Flight Track Log - Related Links

Times and Time Zones

All times are in EDT time to prevent confusion due to time zone crossing. See the SWA16 flight status page for this flight to view local times or setup timezone preferences in your user account.

Time Position Orientation Groundspeed Altitude Reporting Facility
EDT Latitude Longitude Course Direction KTS MPH feet Rate Location/Type
Fri 02:24:36 PM 35.2008 -101.9322 269° West 235 270 11,100  Level Albuquerque Center
Fri 02:25:37 PM 35.2069 -102.0300 274° West 278 320 14,100 2,488 Climbing Albuquerque Center
Fri 02:26:39 PM 35.2169 -102.1458 276° West 335 386 16,200 2,613 Climbing Albuquerque Center
Fri 02:27:41 PM 35.2242 -102.2692 274° West 361 415 19,500 3,097 Climbing Albuquerque Center
Fri 02:28:00 PM 35.2000 -102.4741 270° West  Level FlightAware Approximate
Fri 02:28:43 PM 35.2317 -102.3881 274° West 355 409 22,600  Level Albuquerque Center
Fri 02:29:44 PM 35.2397 -102.5117 275° West 362 417 24,600 2,000 Climbing Albuquerque Center
Fri 02:30:46 PM 35.2486 -102.6433 275° West 382 440 26,700 1,984 Climbing Albuquerque Center
Fri 02:31:48 PM 35.2572 -102.7733 275° West 385 443 28,700 2,226 Climbing Albuquerque Center
Fri 02:32:50 PM 35.2669 -102.9317 274° West 388 447 31,300 2,146 Climbing Albuquerque Center
Fri 02:33:51 PM 35.2744 -103.0536 274° West 384 442 33,100 1,707 Climbing Albuquerque Center
Fri 02:34:53 PM 35.2822 -103.1825 274° West 378 435 34,800 1,500 Climbing Albuquerque Center
Fri 02:35:55 PM 35.2900 -103.3122 274° West 379 436 36,200 1,415 Climbing Albuquerque Center
Fri 02:36:56 PM 35.2969 -103.4406 274° West 377 434 37,700 878 Climbing Albuquerque Center
Fri 02:37:58 PM 35.3047 -103.5883 274° West 372 428 38,000 145 Climbing Albuquerque Center
Fri 02:39:00 PM 35.3117 -103.7189 274° West 379 436 38,000  Level Albuquerque Center
Fri 02:40:02 PM 35.3189 -103.8469 274° West 378 435 38,000  Level Albuquerque Center
Fri 02:41:04 PM 35.3258 -103.9797 274° West 380 437 38,000  Level Albuquerque Center
Fri 02:42:05 PM 35.3333 -104.1097 274° West 384 442 38,000  Level Albuquerque Center
Fri 02:43:07 PM 35.3381 -104.2406 273° West 384 442 38,000  Level Albuquerque Center
Fri 02:44:09 PM 35.3444 -104.3864 273° West 384 442 38,000  Level Albuquerque Center
Fri 02:45:11 PM 35.3506 -104.5158 273° West 381 438 38,000  Level Albuquerque Center
Fri 02:46:12 PM 35.3567 -104.6458 273° West 381 438 38,000  Level Albuquerque Center
Fri 02:47:14 PM 35.3628 -104.7767 273° West 382 440 38,000  Level Albuquerque Center
Fri 02:48:16 PM 35.3681 -104.9103 273° West 389 448 38,000  Level Albuquerque Center
Fri 02:49:18 PM 35.3747 -105.0439 274° West 390 449 38,000  Level Albuquerque Center
Fri 02:50:19 PM 35.3803 -105.1778 273° West 389 448 38,000  Level Albuquerque Center
Fri 02:51:21 PM 35.3853 -105.3114 273° West 390 449 38,000  Level Albuquerque Center
Fri 02:52:23 PM 35.3925 -105.4658 273° West 387 445 38,000  Level Albuquerque Center
Fri 02:53:25 PM 35.3964 -105.5964 272° West 382 440 38,000  Level Albuquerque Center
Fri 02:54:26 PM 35.4003 -105.7286 272° West 383 441 38,000  Level Albuquerque Center
Fri 02:55:28 PM 35.4053 -105.8600 273° West 383 441 38,000  Level Albuquerque Center
Fri 02:56:30 PM 35.4097 -105.9917 272° West 386 444 38,000  Level Albuquerque Center
Fri 02:57:32 PM 35.4150 -106.1233 273° West 387 445 38,000  Level Albuquerque Center
Fri 02:58:34 PM 35.4208 -106.2561 273° West 391 450 38,000  Level Albuquerque Center
Fri 02:59:35 PM 35.4253 -106.3903 272° West 395 455 38,000  Level Albuquerque Center
Fri 03:00:37 PM 35.4294 -106.5492 272° West 392 451 38,000  Level Albuquerque Center
Fri 03:01:39 PM 35.4333 -106.6825 272° West 393 452 38,000  Level Albuquerque Center
Fri 03:02:41 PM 35.4375 -106.8144 272° West 392 451 38,000  Level Albuquerque Center
Fri 03:03:43 PM 35.4414 -106.9475 272° West 394 453 38,000  Level Albuquerque Center
Fri 03:04:45 PM 35.4444 -107.0803 272° West 393 452 38,000  Level Albuquerque Center
Fri 03:05:46 PM 35.4475 -107.2308 271° West 391 450 38,000  Level Albuquerque Center
Fri 03:06:48 PM 35.4522 -107.3811 272° West 394 453 38,000  Level Albuquerque Center
Fri 03:07:50 PM 35.4547 -107.5092 271° West 394 453 38,000  Level Albuquerque Center
Fri 03:08:52 PM 35.4581 -107.6378 272° West 394 453 38,000  Level Albuquerque Center
Fri 03:09:54 PM 35.4611 -107.7886 271° West 395 455 38,000  Level Albuquerque Center
Fri 03:10:56 PM 35.4622 -107.9181 271° West 395 455 38,000  Level Albuquerque Center
Fri 03:11:58 PM 35.4661 -108.0681 272° West 395 455 38,000  Level Albuquerque Center
Fri 03:13:00 PM 35.4672 -108.1992 271° West 398 458 38,000  Level Albuquerque Center
Fri 03:14:02 PM 35.4694 -108.3500 271° West 396 456 38,000  Level Albuquerque Center
Fri 03:15:03 PM 35.4719 -108.4808 271° West 398 458 38,000  Level Albuquerque Center
Fri 03:16:05 PM 35.4739 -108.6125 271° West 402 463 38,000  Level Albuquerque Center
Fri 03:17:07 PM 35.4756 -108.7658 271° West 401 461 38,000  Level Albuquerque Center
Fri 03:18:09 PM 35.4772 -108.8975 271° West 402 463 38,000  Level Albuquerque Center
Fri 03:19:11 PM 35.4864 -109.0503 274° West 401 461 38,000  Level Albuquerque Center
Fri 03:20:13 PM 35.4925 -109.1825 273° West 402 463 38,000  Level Albuquerque Center
Fri 03:21:15 PM 35.5003 -109.3378 274° West 405 466 38,000  Level Albuquerque Center
Fri 03:22:16 PM 35.5067 -109.4717 273° West 407 468 38,000  Level Albuquerque Center
Fri 03:23:18 PM 35.5103 -109.6047 272° West 407 468 38,000  Level Albuquerque Center
Fri 03:24:20 PM 35.5175 -109.7592 273° West 406 467 38,000  Level Albuquerque Center
Fri 03:25:22 PM 35.5231 -109.8922 273° West 408 470 38,000  Level Albuquerque Center
Fri 03:26:24 PM 35.5278 -110.0492 272° West 410 472 38,000  Level Albuquerque Center
Fri 03:27:26 PM 35.5325 -110.1831 273° West 410 472 38,000  Level Albuquerque Center
Fri 03:28:28 PM 35.5383 -110.3378 273° West 408 470 38,000  Level Albuquerque Center
Fri 03:29:30 PM 35.5431 -110.4714 273° West 409 471 38,000  Level Albuquerque Center
Fri 03:30:32 PM 35.5483 -110.6267 272° West 408 470 38,000 -290 Level Albuquerque Center
Fri 03:31:34 PM 35.5542 -110.7597 273° West 408 470 37,400 -726 Descending Albuquerque Center
Fri 03:32:36 PM 35.5589 -110.8900 273° West 403 464 36,500 -1,016 Descending Albuquerque Center
Fri 03:33:38 PM 35.5631 -111.0397 272° West 395 455 35,300 -1,500 Descending Albuquerque Center
Fri 03:34:40 PM 35.5683 -111.1686 273° West 396 456 33,400 -1,839 Descending Albuquerque Center
Fri 03:35:42 PM 35.5719 -111.3197 272° West 396 456 31,500 -1,415 Descending Albuquerque Center
Fri 03:36:43 PM 35.5767 -111.4511 273° West 395 455 30,500 -732 Descending Albuquerque Center
Fri 03:37:45 PM 35.5808 -111.5872 272° West 401 461 30,000 -242 Descending Albuquerque Center
Fri 03:38:47 PM 35.5839 -111.7228 272° West 399 459 30,000  Level Albuquerque Center
Fri 03:39:49 PM 35.5875 -111.8608 272° West 405 466 30,000  Level Albuquerque Center
Fri 03:40:51 PM 35.5967 -112.0236 274° West 403 464 30,000  Level Albuquerque Center
Fri 03:41:53 PM 35.5972 -112.1597 270° West 400 460 30,000  Level Albuquerque Center
Fri 03:42:55 PM 35.6008 -112.2958 272° West 400 460 30,000  Level Albuquerque Center
Fri 03:43:57 PM 35.6053 -112.4328 272° West 404 465 30,000  Level Albuquerque Center
Fri 03:44:26 PM 35.6067 -112.5156 271° West 404 465 30,000  Level Los Angeles Center
Fri 03:45:28 PM 35.6100 -112.6478 272° West 396 456 30,000  Level Los Angeles Center
Fri 03:46:30 PM 35.6128 -112.7842 271° West 397 457 30,000  Level Los Angeles Center
Fri 03:47:32 PM 35.6147 -112.9472 271° West 403 464 30,000  Level Los Angeles Center
Fri 03:48:34 PM 35.6183 -113.0847 272° West 404 465 30,000  Level Los Angeles Center
Fri 03:49:37 PM 35.6194 -113.2253 271° West 408 470 30,000 -864 Level Los Angeles Center
Fri 03:50:39 PM 35.6214 -113.3536 271° West 399 459 28,200 -1,809 Descending Los Angeles Center
Fri 03:51:53 PM 35.6239 -113.5072 271° West 380 437 25,900 -2,206 Descending Los Angeles Center
Fri 03:52:55 PM 35.6394 -113.6525 278° West 362 417 23,200 -2,274 Descending Los Angeles Center
Fri 03:53:57 PM 35.6583 -113.7739 281° West 361 415 21,200 -1,920 Descending Los Angeles Center
Fri 03:55:00 PM 35.6742 -113.8950 279° West 362 417 19,200 -1,728 Descending Los Angeles Center
Fri 03:56:02 PM 35.6914 -114.0111 280° West 349 402 17,600 -1,855 Descending Los Angeles Center
Fri 03:56:50 PM 35.7031 -114.1133 278° West 340 391 15,800 -1,403 Descending Los Angeles Center
Fri 03:58:06 PM 35.7603 -114.2325 301° West 337 388 14,700 -990 Descending Los Angeles Center
Fri 03:58:27 PM 35.7842 -114.2797 302° West 343 395 14,200 -871 Descending Los Angeles Center
Fri 03:59:08 PM 35.8069 -114.3325 298° West 337 388 13,800 -1,515 Descending Los Angeles Center
Fri 04:00:10 PM 35.8692 -114.4431 305° West 326 375 11,600 -1,680 Descending Los Angeles Center
Fri 04:01:13 PM 35.9419 -114.5025 327° Northwest 314 361 10,300 -1,350 Descending Los Angeles Center
Fri 04:01:30 PM 35.9575 -114.5319 303° West 303 349 9,800 -1,082 Descending Los Angeles Center
Fri 04:02:14 PM 35.9867 -114.5828 305° West 285 328 9,200 -939 Descending Los Angeles Center
Fri 04:03:25 PM 36.0406 -114.6717 307° West 256 295 8,000 -624 Descending Los Angeles Center
Fri 04:04:19 PM 36.0711 -114.7192 309° West 251 289 7,900 -466 Descending Los Angeles Center
Fri 04:05:21 PM 36.0742 -114.7981 273° West 244 281 7,100 -927 Descending Los Angeles Center
Fri 04:06:22 PM 36.0747 -114.8944 270° West 233 268 6,000 -1,258 Descending Los Angeles Center
Fri 04:07:25 PM 36.0739 -114.9742 269° West 235 270 4,500 -1,296 Descending Los Angeles Center
Fri 04:08:27 PM 36.0744 -115.0406 271° West 216 249 3,300 -968 Descending Los Angeles Center
Fri 04:09:29 PM 36.0742 -115.0964 270° West 189 217 2,500 -629 Descending Los Angeles Center
Fri 04:10:31 PM 36.0750 -115.1439 271° West 163 188 2,000 -484 Descending Los Angeles Center
Fri 04:12:00 PM 36.0667 -115.1500 270° West  Level FlightAware Approximate

Login

Don't have an account? Register now (free) for customized features, flight alerts, and more!